sensor_id;sensor_type;location;lat;lon;timestamp;pressure;altitude;pressure_sealevel;temperature;humidity
44675;BME280;30388;52.038;-1.478;2022-07-06T00:00:49;66252.23;;;14.60;100.00
44675;BME280;30388;52.038;-1.478;2022-07-06T00:03:16;66226.37;;;14.49;100.00
44675;BME280;30388;52.038;-1.478;2022-07-06T00:05:43;66409.48;;;16.09;100.00
44675;BME280;30388;52.038;-1.478;2022-07-06T00:08:10;66468.89;;;16.83;100.00
44675;BME280;30388;52.038;-1.478;2022-07-06T00:10:37;66446.25;;;16.55;100.00
44675;BME280;30388;52.038;-1.478;2022-07-06T00:13:04;66422.11;;;15.98;100.00
44675;BME280;30388;52.038;-1.478;2022-07-06T00:15:31;66424.59;;;16.28;100.00
44675;BME280;30388;52.038;-1.478;2022-07-06T00:17:58;66501.98;;;16.98;100.00
44675;BME280;30388;52.038;-1.478;2022-07-06T00:20:26;66481.58;;;16.72;100.00
44675;BME280;30388;52.038;-1.478;2022-07-06T00:22:52;66483.00;;;16.74;100.00
44675;BME280;30388;52.038;-1.478;2022-07-06T00:25:19;66409.06;;;16.08;100.00
44675;BME280;30388;52.038;-1.478;2022-07-06T00:27:46;66401.82;;;15.99;100.00
44675;BME280;30388;52.038;-1.478;2022-07-06T00:30:13;66429.58;;;16.34;100.00
44675;BME280;30388;52.038;-1.478;2022-07-06T00:32:40;66364.83;;;15.52;100.00
44675;BME280;30388;52.038;-1.478;2022-07-06T00:35:07;66368.21;;;15.57;100.00
44675;BME280;30388;52.038;-1.478;2022-07-06T00:37:35;66400.35;;;15.97;100.00
44675;BME280;30388;52.038;-1.478;2022-07-06T00:40:03;66465.84;;;16.53;100.00
44675;BME280;30388;52.038;-1.478;2022-07-06T00:42:30;66314.59;;;14.89;100.00
44675;BME280;30388;52.038;-1.478;2022-07-06T00:45:06;66364.93;;;16.02;100.00
44675;BME280;30388;52.038;-1.478;2022-07-06T00:47:33;66254.06;;;14.62;100.00
44675;BME280;30388;52.038;-1.478;2022-07-06T00:50:00;66227.93;;;14.29;100.00
44675;BME280;30388;52.038;-1.478;2022-07-06T00:52:28;66185.04;;;13.97;100.00
44675;BME280;30388;52.038;-1.478;2022-07-06T00:54:55;66086.27;;;12.95;100.00
44675;BME280;30388;52.038;-1.478;2022-07-06T00:57:22;66094.24;;;13.06;100.00
44675;BME280;30388;52.038;-1.478;2022-07-06T00:59:49;65998.83;;;12.33;100.00
44675;BME280;30388;52.038;-1.478;2022-07-06T01:02:16;66157.06;;;13.84;100.00
44675;BME280;30388;52.038;-1.478;2022-07-06T01:04:43;66301.71;;;15.22;100.00
44675;BME280;30388;52.038;-1.478;2022-07-06T01:07:10;66320.20;;;15.18;100.00
44675;BME280;30388;52.038;-1.478;2022-07-06T01:09:37;66127.74;;;13.47;100.00
44675;BME280;30388;52.038;-1.478;2022-07-06T01:12:06;66224.69;;;14.69;100.00
44675;BME280;30388;52.038;-1.478;2022-07-06T01:14:34;66164.55;;;13.71;100.00
44675;BME280;30388;52.038;-1.478;2022-07-06T01:17:02;66318.30;;;15.17;100.00
44675;BME280;30388;52.038;-1.478;2022-07-06T01:19:30;66300.97;;;14.94;100.00
44675;BME280;30388;52.038;-1.478;2022-07-06T01:21:57;66368.79;;;15.80;100.00
44675;BME280;30388;52.038;-1.478;2022-07-06T01:24:24;66239.50;;;14.48;100.00
44675;BME280;30388;52.038;-1.478;2022-07-06T01:26:51;66110.48;;;13.25;100.00
44675;BME280;30388;52.038;-1.478;2022-07-06T01:29:19;66213.09;;;14.55;100.00
44675;BME280;30388;52.038;-1.478;2022-07-06T01:31:47;66278.72;;;14.93;100.00
44675;BME280;30388;52.038;-1.478;2022-07-06T01:34:14;66197.97;;;14.14;100.00
44675;BME280;30388;52.038;-1.478;2022-07-06T01:36:43;66077.68;;;12.84;100.00
44675;BME280;30388;52.038;-1.478;2022-07-06T01:39:11;66136.14;;;13.59;100.00
44675;BME280;30388;52.038;-1.478;2022-07-06T01:41:38;66145.94;;;13.71;100.00
44675;BME280;30388;52.038;-1.478;2022-07-06T01:44:06;66237.79;;;14.64;100.00
44675;BME280;30388;52.038;-1.478;2022-07-06T01:46:34;66276.31;;;14.90;100.00
44675;BME280;30388;52.038;-1.478;2022-07-06T01:49:01;66170.06;;;13.79;100.00
44675;BME280;30388;52.038;-1.478;2022-07-06T01:51:29;66208.75;;;14.49;100.00
44675;BME280;30388;52.038;-1.478;2022-07-06T01:53:56;66281.38;;;15.19;100.00
44675;BME280;30388;52.038;-1.478;2022-07-06T01:56:23;66295.56;;;14.88;100.00
44675;BME280;30388;52.038;-1.478;2022-07-06T01:58:51;66180.37;;;13.92;100.00
44675;BME280;30388;52.038;-1.478;2022-07-06T02:01:19;66190.57;;;14.05;100.00
44675;BME280;30388;52.038;-1.478;2022-07-06T02:03:47;66262.62;;;14.72;100.00
44675;BME280;30388;52.038;-1.478;2022-07-06T02:06:14;66260.37;;;14.92;100.00
44675;BME280;30388;52.038;-1.478;2022-07-06T02:08:42;66350.75;;;15.35;100.00
44675;BME280;30388;52.038;-1.478;2022-07-06T02:11:10;66330.37;;;15.10;100.00
44675;BME280;30388;52.038;-1.478;2022-07-06T02:13:38;66348.14;;;15.32;100.00
44675;BME280;30388;52.038;-1.478;2022-07-06T02:16:05;66527.08;;;17.08;100.00
44675;BME280;30388;52.038;-1.478;2022-07-06T02:18:32;66555.78;;;17.43;100.00
44675;BME280;30388;52.038;-1.478;2022-07-06T02:21:00;66612.14;;;18.14;100.00
44675;BME280;30388;52.038;-1.478;2022-07-06T02:23:27;66665.74;;;18.33;100.00
44675;BME280;30388;52.038;-1.478;2022-07-06T02:25:55;66665.47;;;18.32;100.00
44675;BME280;30388;52.038;-1.478;2022-07-06T02:28:22;66696.56;;;18.49;100.00
44675;BME280;30388;52.038;-1.478;2022-07-06T02:30:48;66732.58;;;19.17;100.00
44675;BME280;30388;52.038;-1.478;2022-07-06T02:33:15;66700.39;;;18.77;100.00
44675;BME280;30388;52.038;-1.478;2022-07-06T02:35:42;66597.67;;;17.47;100.00
44675;BME280;30388;52.038;-1.478;2022-07-06T02:38:09;66595.22;;;17.71;100.00
44675;BME280;30388;52.038;-1.478;2022-07-06T02:40:37;66722.03;;;19.03;100.00
44675;BME280;30388;52.038;-1.478;2022-07-06T02:43:04;66642.32;;;18.03;100.00
44675;BME280;30388;52.038;-1.478;2022-07-06T02:45:31;66635.32;;;17.94;100.00
44675;BME280;30388;52.038;-1.478;2022-07-06T02:47:58;66458.67;;;16.22;100.00
44675;BME280;30388;52.038;-1.478;2022-07-06T02:50:25;66453.05;;;16.36;100.00
44675;BME280;30388;52.038;-1.478;2022-07-06T02:52:52;66275.74;;;14.89;100.00
44675;BME280;30388;52.038;-1.478;2022-07-06T02:55:19;66401.63;;;15.99;100.00
44675;BME280;30388;52.038;-1.478;2022-07-06T02:57:46;66330.47;;;15.58;100.00
44675;BME280;30388;52.038;-1.478;2022-07-06T03:00:13;66422.40;;;16.25;100.00
44675;BME280;30388;52.038;-1.478;2022-07-06T03:02:41;66435.19;;;16.41;100.00
44675;BME280;30388;52.038;-1.478;2022-07-06T03:05:08;66403.55;;;16.01;100.00
44675;BME280;30388;52.038;-1.478;2022-07-06T03:07:35;66375.38;;;15.66;100.00
44675;BME280;30388;52.038;-1.478;2022-07-06T03:10:03;66452.84;;;16.64;100.00
44675;BME280;30388;52.038;-1.478;2022-07-06T03:12:30;66515.17;;;17.42;100.00
44675;BME280;30388;52.038;-1.478;2022-07-06T03:14:57;66589.79;;;17.64;100.00
44675;BME280;30388;52.038;-1.478;2022-07-06T03:17:24;66665.59;;;18.82;100.00
44675;BME280;30388;52.038;-1.478;2022-07-06T03:19:51;66707.01;;;18.84;100.00
44675;BME280;30388;52.038;-1.478;2022-07-06T03:22:18;66713.83;;;18.93;100.00
44675;BME280;30388;52.038;-1.478;2022-07-06T03:24:45;66683.44;;;18.54;100.00
44675;BME280;30388;52.038;-1.478;2022-07-06T03:27:12;66673.50;;;18.69;100.00
44675;BME280;30388;52.038;-1.478;2022-07-06T03:29:38;66691.04;;;18.64;100.00
44675;BME280;30388;52.038;-1.478;2022-07-06T03:32:06;66666.71;;;18.34;100.00
44675;BME280;30388;52.038;-1.478;2022-07-06T03:34:33;66561.25;;;17.02;100.00
44675;BME280;30388;52.038;-1.478;2022-07-06T03:37:01;66643.72;;;18.32;100.00
44675;BME280;30388;52.038;-1.478;2022-07-06T03:39:28;66619.08;;;18.01;100.00
44675;BME280;30388;52.038;-1.478;2022-07-06T03:41:55;66566.42;;;17.57;100.00
44675;BME280;30388;52.038;-1.478;2022-07-06T03:44:22;66669.38;;;18.63;100.00
44675;BME280;30388;52.038;-1.478;2022-07-06T03:46:49;66653.38;;;18.17;100.00
44675;BME280;30388;52.038;-1.478;2022-07-06T03:49:15;66558.32;;;17.47;100.00
44675;BME280;30388;52.038;-1.478;2022-07-06T03:51:42;66637.24;;;17.97;100.00
44675;BME280;30388;52.038;-1.478;2022-07-06T03:54:09;66662.38;;;18.29;100.00
44675;BME280;30388;52.038;-1.478;2022-07-06T03:56:36;66590.74;;;17.65;100.00
44675;BME280;30388;52.038;-1.478;2022-07-06T03:59:03;66611.32;;;17.91;100.00
44675;BME280;30388;52.038;-1.478;2022-07-06T04:01:30;66618.25;;;18.22;100.00
44675;BME280;30388;52.038;-1.478;2022-07-06T04:03:58;66570.94;;;17.40;100.00
44675;BME280;30388;52.038;-1.478;2022-07-06T04:06:25;66623.50;;;18.06;100.00
44675;BME280;30388;52.038;-1.478;2022-07-06T04:08:52;66672.18;;;18.68;100.00
44675;BME280;30388;52.038;-1.478;2022-07-06T04:11:18;66682.64;;;18.53;100.00
44675;BME280;30388;52.038;-1.478;2022-07-06T04:13:45;66618.83;;;17.74;100.00
44675;BME280;30388;52.038;-1.478;2022-07-06T04:16:12;66616.09;;;17.71;100.00
44675;BME280;30388;52.038;-1.478;2022-07-06T04:18:40;66609.66;;;17.89;100.00
44675;BME280;30388;52.038;-1.478;2022-07-06T04:21:07;66608.05;;;18.09;100.00
44675;BME280;30388;52.038;-1.478;2022-07-06T04:23:35;66444.33;;;16.26;100.00
44675;BME280;30388;52.038;-1.478;2022-07-06T04:26:02;66478.59;;;16.69;100.00
44675;BME280;30388;52.038;-1.478;2022-07-06T04:28:28;66295.20;;;15.14;100.00
44675;BME280;30388;52.038;-1.478;2022-07-06T04:30:55;66308.36;;;15.30;100.00
44675;BME280;30388;52.038;-1.478;2022-07-06T04:33:22;66474.62;;;16.90;100.00
44675;BME280;30388;52.038;-1.478;2022-07-06T04:35:49;66504.21;;;17.28;100.00
44675;BME280;30388;52.038;-1.478;2022-07-06T04:38:16;66447.23;;;16.56;100.00
44675;BME280;30388;52.038;-1.478;2022-07-06T04:40:44;66416.69;;;16.18;100.00
44675;BME280;30388;52.038;-1.478;2022-07-06T04:43:11;66558.21;;;17.68;100.00
44675;BME280;30388;52.038;-1.478;2022-07-06T04:45:38;66617.28;;;18.20;100.00
44675;BME280;30388;52.038;-1.478;2022-07-06T04:48:05;66465.16;;;16.52;100.00
44675;BME280;30388;52.038;-1.478;2022-07-06T04:50:33;66537.65;;;17.21;100.00
44675;BME280;30388;52.038;-1.478;2022-07-06T04:53:00;66604.26;;;18.27;100.00
44675;BME280;30388;52.038;-1.478;2022-07-06T04:55:27;66525.52;;;17.05;100.00
44675;BME280;30388;52.038;-1.478;2022-07-06T04:57:54;66571.85;;;17.63;100.00
44675;BME280;30388;52.038;-1.478;2022-07-06T05:00:21;66380.40;;;15.72;100.00
44675;BME280;30388;52.038;-1.478;2022-07-06T05:02:48;66553.89;;;17.42;100.00
44675;BME280;30388;52.038;-1.478;2022-07-06T05:05:15;66566.50;;;17.57;100.00
44675;BME280;30388;52.038;-1.478;2022-07-06T05:07:42;66608.01;;;18.09;100.00
44675;BME280;30388;52.038;-1.478;2022-07-06T05:10:10;66668.09;;;18.36;100.00
44675;BME280;30388;52.038;-1.478;2022-07-06T05:12:38;66703.24;;;18.80;100.00
44675;BME280;30388;52.038;-1.478;2022-07-06T05:15:06;66668.63;;;18.36;100.00
44675;BME280;30388;52.038;-1.478;2022-07-06T05:17:34;66633.76;;;17.92;100.00
44675;BME280;30388;52.038;-1.478;2022-07-06T05:20:00;66479.16;;;16.48;100.00
44675;BME280;30388;52.038;-1.478;2022-07-06T05:22:27;66283.07;;;14.50;100.00
44675;BME280;30388;52.038;-1.478;2022-07-06T05:24:54;66423.23;;;16.26;100.00
44675;BME280;30388;52.038;-1.478;2022-07-06T05:27:21;66334.97;;;15.15;100.00
44675;BME280;30388;52.038;-1.478;2022-07-06T05:29:48;66352.18;;;15.59;100.00
44675;BME280;30388;52.038;-1.478;2022-07-06T05:32:15;66529.65;;;17.11;100.00
44675;BME280;30388;52.038;-1.478;2022-07-06T05:34:42;66432.88;;;16.38;100.00
44675;BME280;30388;52.038;-1.478;2022-07-06T05:37:09;66392.74;;;15.87;100.00
44675;BME280;30388;52.038;-1.478;2022-07-06T05:39:36;66369.03;;;15.57;100.00
44675;BME280;30388;52.038;-1.478;2022-07-06T05:42:03;66403.16;;;16.00;100.00
44675;BME280;30388;52.038;-1.478;2022-07-06T05:44:30;66569.23;;;17.83;100.00
44675;BME280;30388;52.038;-1.478;2022-07-06T05:46:57;66541.90;;;17.26;100.00
44675;BME280;30388;52.038;-1.478;2022-07-06T05:49:24;66502.94;;;16.77;100.00
44675;BME280;30388;52.038;-1.478;2022-07-06T05:51:51;66625.28;;;18.08;100.00
44675;BME280;30388;52.038;-1.478;2022-07-06T05:54:18;66709.19;;;18.87;100.00
44675;BME280;30388;52.038;-1.478;2022-07-06T05:56:45;66580.10;;;17.75;100.00
44675;BME280;30388;52.038;-1.478;2022-07-06T05:59:12;66512.57;;;17.12;100.00
44675;BME280;30388;52.038;-1.478;2022-07-06T06:01:39;66545.63;;;17.31;100.00
44675;BME280;30388;52.038;-1.478;2022-07-06T06:04:06;66617.98;;;18.22;100.00
44675;BME280;30388;52.038;-1.478;2022-07-06T06:06:33;66522.40;;;17.02;100.00
44675;BME280;30388;52.038;-1.478;2022-07-06T06:09:00;66573.05;;;17.65;100.00
44675;BME280;30388;52.038;-1.478;2022-07-06T06:11:27;66528.97;;;16.88;100.00
44675;BME280;30388;52.038;-1.478;2022-07-06T06:13:54;66422.42;;;15.76;100.00
44675;BME280;30388;52.038;-1.478;2022-07-06T06:16:21;66530.46;;;17.11;100.00
44675;BME280;30388;52.038;-1.478;2022-07-06T06:18:48;66554.65;;;17.20;100.00
44675;BME280;30388;52.038;-1.478;2022-07-06T06:21:15;66652.59;;;18.15;100.00
44675;BME280;30388;52.038;-1.478;2022-07-06T06:23:42;66582.66;;;17.77;100.00
44675;BME280;30388;52.038;-1.478;2022-07-06T06:26:09;66648.90;;;18.11;100.00
44675;BME280;30388;52.038;-1.478;2022-07-06T06:28:36;66760.82;;;19.52;100.00
44675;BME280;30388;52.038;-1.478;2022-07-06T06:31:03;66779.43;;;19.26;100.00
44675;BME280;30388;52.038;-1.478;2022-07-06T06:33:30;66596.79;;;17.46;100.00
44675;BME280;30388;52.038;-1.478;2022-07-06T06:35:57;66593.96;;;17.42;100.00
44675;BME280;30388;52.038;-1.478;2022-07-06T06:38:24;66707.15;;;18.84;100.00
44675;BME280;30388;52.038;-1.478;2022-07-06T06:40:51;66572.99;;;17.43;100.00
44675;BME280;30388;52.038;-1.478;2022-07-06T06:43:19;66585.69;;;18.04;100.00
44675;BME280;30388;52.038;-1.478;2022-07-06T06:45:46;66663.21;;;18.29;100.00
44675;BME280;30388;52.038;-1.478;2022-07-06T06:48:13;66569.91;;;17.61;100.00
44675;BME280;30388;52.038;-1.478;2022-07-06T06:50:40;66401.79;;;15.73;100.00
44675;BME280;30388;52.038;-1.478;2022-07-06T06:53:06;66530.76;;;17.12;100.00
44675;BME280;30388;52.038;-1.478;2022-07-06T06:55:34;66497.48;;;16.70;100.00
44675;BME280;30388;52.038;-1.478;2022-07-06T06:58:01;66498.79;;;16.94;100.00
44675;BME280;30388;52.038;-1.478;2022-07-06T07:00:29;66486.19;;;16.56;100.00
44675;BME280;30388;52.038;-1.478;2022-07-06T07:02:56;66435.79;;;15.92;100.00
44675;BME280;30388;52.038;-1.478;2022-07-06T07:05:23;66501.82;;;17.24;100.00
44675;BME280;30388;52.038;-1.478;2022-07-06T07:07:50;66582.70;;;17.77;100.00
44675;BME280;30388;52.038;-1.478;2022-07-06T07:10:17;66651.13;;;18.41;100.00
44675;BME280;30388;52.038;-1.478;2022-07-06T07:12:45;66615.53;;;18.18;100.00
44675;BME280;30388;52.038;-1.478;2022-07-06T07:15:12;66537.45;;;17.20;100.00
44675;BME280;30388;52.038;-1.478;2022-07-06T07:17:40;66558.79;;;17.69;100.00
44675;BME280;30388;52.038;-1.478;2022-07-06T07:20:08;66562.27;;;17.52;100.00
44675;BME280;30388;52.038;-1.478;2022-07-06T07:22:36;66581.99;;;17.54;100.00
44675;BME280;30388;52.038;-1.478;2022-07-06T07:25:04;66687.75;;;18.60;100.00
44675;BME280;30388;52.038;-1.478;2022-07-06T07:27:31;66578.91;;;17.72;100.00
44675;BME280;30388;52.038;-1.478;2022-07-06T07:29:59;66524.72;;;17.05;100.00
44675;BME280;30388;52.038;-1.478;2022-07-06T07:32:26;66455.53;;;16.40;100.00
44675;BME280;30388;52.038;-1.478;2022-07-06T07:34:53;66600.49;;;18.21;100.00
44675;BME280;30388;52.038;-1.478;2022-07-06T07:37:20;66568.26;;;17.81;100.00
44675;BME280;30388;52.038;-1.478;2022-07-06T07:39:46;66523.94;;;17.26;100.00
44675;BME280;30388;52.038;-1.478;2022-07-06T07:42:13;66584.27;;;18.01;100.00
44675;BME280;30388;52.038;-1.478;2022-07-06T07:44:40;66557.36;;;17.67;100.00
44675;BME280;30388;52.038;-1.478;2022-07-06T07:47:07;66542.11;;;17.27;100.00
44675;BME280;30388;52.038;-1.478;2022-07-06T07:49:35;66663.45;;;18.79;100.00
44675;BME280;30388;52.038;-1.478;2022-07-06T07:52:02;66663.09;;;18.29;100.00
44675;BME280;30388;52.038;-1.478;2022-07-06T07:54:29;66669.69;;;18.86;100.00
44675;BME280;30388;52.038;-1.478;2022-07-06T07:56:57;66678.24;;;18.48;100.00
44675;BME280;30388;52.038;-1.478;2022-07-06T07:59:24;66752.11;;;19.41;100.00
44675;BME280;30388;52.038;-1.478;2022-07-06T08:01:51;66567.22;;;17.58;100.00
44675;BME280;30388;52.038;-1.478;2022-07-06T08:04:17;66605.15;;;18.05;100.00
44675;BME280;30388;52.038;-1.478;2022-07-06T08:06:45;66664.46;;;18.30;100.00
44675;BME280;30388;52.038;-1.478;2022-07-06T08:09:13;66518.05;;;17.44;100.00
44675;BME280;30388;52.038;-1.478;2022-07-06T08:11:40;66715.16;;;18.95;100.00
44675;BME280;30388;52.038;-1.478;2022-07-06T08:14:07;66775.12;;;19.70;100.00
44675;BME280;30388;52.038;-1.478;2022-07-06T08:16:34;66640.02;;;18.00;100.00
44675;BME280;30388;52.038;-1.478;2022-07-06T08:19:02;66603.86;;;18.26;100.00
44675;BME280;30388;52.038;-1.478;2022-07-06T08:21:28;66674.04;;;18.70;100.00
44675;BME280;30388;52.038;-1.478;2022-07-06T08:23:56;66585.69;;;17.81;100.00
44675;BME280;30388;52.038;-1.478;2022-07-06T08:26:23;66538.78;;;17.22;100.00
44675;BME280;30388;52.038;-1.478;2022-07-06T08:28:50;66442.55;;;16.50;100.00
44675;BME280;30388;52.038;-1.478;2022-07-06T08:31:17;66409.84;;;16.57;100.00
44675;BME280;30388;52.038;-1.478;2022-07-06T08:33:44;66498.93;;;17.21;100.00
44675;BME280;30388;52.038;-1.478;2022-07-06T08:36:11;66599.39;;;18.21;100.00
44675;BME280;30388;52.038;-1.478;2022-07-06T08:38:39;66772.74;;;19.67;100.00
44675;BME280;30388;52.038;-1.478;2022-07-06T08:41:06;66609.54;;;18.11;100.00
44675;BME280;30388;52.038;-1.478;2022-07-06T08:43:35;66653.12;;;18.66;100.00
44675;BME280;30388;52.038;-1.478;2022-07-06T08:46:02;66655.36;;;18.19;100.00
44675;BME280;30388;52.038;-1.478;2022-07-06T08:48:35;66808.75;;;20.12;100.00
44675;BME280;30388;52.038;-1.478;2022-07-06T08:51:04;66843.53;;;20.33;100.00
44675;BME280;30388;52.038;-1.478;2022-07-06T08:53:31;66686.14;;;18.58;100.00
44675;BME280;30388;52.038;-1.478;2022-07-06T08:55:59;66600.92;;;18.00;100.00
44675;BME280;30388;52.038;-1.478;2022-07-06T08:58:27;66602.84;;;18.03;100.00
44675;BME280;30388;52.038;-1.478;2022-07-06T09:00:55;66676.65;;;18.72;100.00
44675;BME280;30388;52.038;-1.478;2022-07-06T09:03:23;66639.11;;;18.26;100.00
44675;BME280;30388;52.038;-1.478;2022-07-06T09:05:50;66683.21;;;19.03;100.00
44675;BME280;30388;52.038;-1.478;2022-07-06T09:08:21;66597.33;;;17.95;100.00
44675;BME280;30388;52.038;-1.478;2022-07-06T09:10:49;66559.07;;;17.47;100.00
44675;BME280;30388;52.038;-1.478;2022-07-06T09:13:16;66623.23;;;18.05;100.00
44675;BME280;30388;52.038;-1.478;2022-07-06T09:15:43;66558.03;;;17.24;100.00
44675;BME280;30388;52.038;-1.478;2022-07-06T09:18:10;66584.30;;;17.79;100.00
44675;BME280;30388;52.038;-1.478;2022-07-06T09:20:40;66571.76;;;17.41;100.00
44675;BME280;30388;52.038;-1.478;2022-07-06T09:23:07;66715.32;;;18.94;100.00
44675;BME280;30388;52.038;-1.478;2022-07-06T09:25:35;66657.01;;;18.21;100.00
44675;BME280;30388;52.038;-1.478;2022-07-06T09:28:02;66570.53;;;17.62;100.00
44675;BME280;30388;52.038;-1.478;2022-07-06T09:30:30;66643.58;;;18.31;100.00
44675;BME280;30388;52.038;-1.478;2022-07-06T09:32:58;66551.74;;;17.38;100.00
44675;BME280;30388;52.038;-1.478;2022-07-06T09:35:26;66534.95;;;17.40;100.00
44675;BME280;30388;52.038;-1.478;2022-07-06T09:38:03;66542.64;;;17.49;100.00
44675;BME280;30388;52.038;-1.478;2022-07-06T09:40:32;66701.03;;;19.04;100.00
44675;BME280;30388;52.038;-1.478;2022-07-06T09:43:16;66740.56;;;19.27;100.00
44675;BME280;30388;52.038;-1.478;2022-07-06T09:45:45;66782.81;;;19.30;100.00
44675;BME280;30388;52.038;-1.478;2022-07-06T09:48:14;66635.76;;;18.21;100.00
44675;BME280;30388;52.038;-1.478;2022-07-06T09:50:43;66687.33;;;18.60;100.00
44675;BME280;30388;52.038;-1.478;2022-07-06T09:53:11;66565.85;;;17.78;100.00
44675;BME280;30388;52.038;-1.478;2022-07-06T09:55:43;66451.22;;;16.83;100.00
44675;BME280;30388;52.038;-1.478;2022-07-06T09:58:10;66516.62;;;17.16;100.00
44675;BME280;30388;52.038;-1.478;2022-07-06T10:00:37;66548.20;;;17.33;100.00
44675;BME280;30388;52.038;-1.478;2022-07-06T10:03:04;66480.52;;;16.48;100.00
44675;BME280;30388;52.038;-1.478;2022-07-06T10:05:32;66447.14;;;16.55;100.00
44675;BME280;30388;52.038;-1.478;2022-07-06T10:08:01;66617.04;;;18.20;100.00
44675;BME280;30388;52.038;-1.478;2022-07-06T10:10:29;66630.17;;;18.36;100.00
44675;BME280;30388;52.038;-1.478;2022-07-06T10:12:57;66597.35;;;17.96;100.00
44675;BME280;30388;52.038;-1.478;2022-07-06T10:15:27;66585.72;;;17.58;100.00
44675;BME280;30388;52.038;-1.478;2022-07-06T10:17:55;66598.91;;;18.19;100.00
44675;BME280;30388;52.038;-1.478;2022-07-06T10:20:23;66578.38;;;17.75;100.00
44675;BME280;30388;52.038;-1.478;2022-07-06T10:22:51;66706.11;;;18.82;100.00
44675;BME280;30388;52.038;-1.478;2022-07-06T10:25:19;66688.73;;;19.10;100.00
44675;BME280;30388;52.038;-1.478;2022-07-06T10:27:47;66656.39;;;18.21;100.00
44675;BME280;30388;52.038;-1.478;2022-07-06T10:30:15;66678.95;;;18.98;100.00
44675;BME280;30388;52.038;-1.478;2022-07-06T10:32:44;66780.35;;;19.76;100.00
44675;BME280;30388;52.038;-1.478;2022-07-06T10:35:12;66876.69;;;20.26;100.00
44675;BME280;30388;52.038;-1.478;2022-07-06T10:37:40;66596.31;;;17.94;100.00
44675;BME280;30388;52.038;-1.478;2022-07-06T10:40:08;66654.82;;;18.67;100.00
44675;BME280;30388;52.038;-1.478;2022-07-06T10:42:40;66709.50;;;18.87;100.00
44675;BME280;30388;52.038;-1.478;2022-07-06T10:45:10;66544.64;;;17.29;100.00
44675;BME280;30388;52.038;-1.478;2022-07-06T10:47:37;66737.00;;;19.22;100.00
44675;BME280;30388;52.038;-1.478;2022-07-06T10:50:05;66707.73;;;18.85;100.00
44675;BME280;30388;52.038;-1.478;2022-07-06T10:52:50;66617.27;;;18.21;100.00
44675;BME280;30388;52.038;-1.478;2022-07-06T10:55:34;66575.95;;;17.69;100.00
44675;BME280;30388;52.038;-1.478;2022-07-06T10:58:02;66756.71;;;19.47;100.00
44675;BME280;30388;52.038;-1.478;2022-07-06T11:01:02;66694.03;;;19.17;100.00
44675;BME280;30388;52.038;-1.478;2022-07-06T11:03:32;66692.71;;;18.67;100.00
44675;BME280;30388;52.038;-1.478;2022-07-06T11:06:01;66738.19;;;19.24;100.00
44675;BME280;30388;52.038;-1.478;2022-07-06T11:09:02;66785.30;;;19.11;100.00
44675;BME280;30388;52.038;-1.478;2022-07-06T11:11:40;66585.57;;;17.81;100.00
44675;BME280;30388;52.038;-1.478;2022-07-06T11:14:10;66531.57;;;17.36;100.00
44675;BME280;30388;52.038;-1.478;2022-07-06T11:16:40;66581.24;;;17.76;100.00
44675;BME280;30388;52.038;-1.478;2022-07-06T11:19:09;66503.54;;;16.78;100.00
44675;BME280;30388;52.038;-1.478;2022-07-06T11:21:39;66517.95;;;17.45;100.00
44675;BME280;30388;52.038;-1.478;2022-07-06T11:24:08;66546.18;;;17.53;100.00
44675;BME280;30388;52.038;-1.478;2022-07-06T11:26:35;66609.54;;;18.11;100.00
44675;BME280;30388;52.038;-1.478;2022-07-06T11:29:04;66604.52;;;18.04;100.00
44675;BME280;30388;52.038;-1.478;2022-07-06T11:31:34;66736.15;;;19.22;100.00
44675;BME280;30388;52.038;-1.478;2022-07-06T11:34:02;66806.02;;;20.09;100.00
44675;BME280;30388;52.038;-1.478;2022-07-06T11:36:30;66911.98;;;20.48;100.00
44675;BME280;30388;52.038;-1.478;2022-07-06T11:38:58;66767.81;;;19.13;100.00
44675;BME280;30388;52.038;-1.478;2022-07-06T11:41:25;66843.84;;;20.08;100.00
44675;BME280;30388;52.038;-1.478;2022-07-06T11:43:53;66988.27;;;21.88;100.00
44675;BME280;30388;52.038;-1.478;2022-07-06T11:46:21;66936.55;;;21.01;100.00
44675;BME280;30388;52.038;-1.478;2022-07-06T11:48:50;66959.76;;;21.08;100.00
44675;BME280;30388;52.038;-1.478;2022-07-06T11:51:18;67048.00;;;21.92;100.00
44675;BME280;30388;52.038;-1.478;2022-07-06T11:53:46;67028.64;;;21.67;100.00
44675;BME280;30388;52.038;-1.478;2022-07-06T11:56:15;67111.58;;;22.27;100.00
44675;BME280;30388;52.038;-1.478;2022-07-06T11:58:45;66994.31;;;21.02;100.00
44675;BME280;30388;52.038;-1.478;2022-07-06T12:01:13;66923.90;;;20.63;100.00
44675;BME280;30388;52.038;-1.478;2022-07-06T12:03:41;67042.31;;;21.62;100.00
44675;BME280;30388;52.038;-1.478;2022-07-06T12:06:15;67038.78;;;22.07;100.00
44675;BME280;30388;52.038;-1.478;2022-07-06T12:08:43;67036.68;;;21.78;100.00
44675;BME280;30388;52.038;-1.478;2022-07-06T12:11:11;67055.24;;;22.01;100.00
44675;BME280;30388;52.038;-1.478;2022-07-06T12:13:43;67054.76;;;22.00;100.00
44675;BME280;30388;52.038;-1.478;2022-07-06T12:16:11;67151.18;;;22.98;100.00
44675;BME280;30388;52.038;-1.478;2022-07-06T12:18:39;67183.06;;;23.39;100.00
44675;BME280;30388;52.038;-1.478;2022-07-06T12:21:08;67249.75;;;23.73;100.00
44675;BME280;30388;52.038;-1.478;2022-07-06T12:23:42;67279.33;;;24.09;100.00
44675;BME280;30388;52.038;-1.478;2022-07-06T12:26:09;67159.74;;;23.10;100.00
44675;BME280;30388;52.038;-1.478;2022-07-06T12:28:36;67280.73;;;24.12;100.00
44675;BME280;30388;52.038;-1.478;2022-07-06T12:31:04;67225.86;;;23.43;100.00
44675;BME280;30388;52.038;-1.478;2022-07-06T12:33:32;67166.09;;;22.68;100.00
44675;BME280;30388;52.038;-1.478;2022-07-06T12:36:11;67028.06;;;21.67;100.00
44675;BME280;30388;52.038;-1.478;2022-07-06T12:38:44;67004.26;;;21.15;100.00
44675;BME280;30388;52.038;-1.478;2022-07-06T12:41:26;67004.08;;;21.38;100.00
44675;BME280;30388;52.038;-1.478;2022-07-06T12:44:02;66999.34;;;21.57;100.00